Airport View

Enter AWOS ICAO identifier for current METAR.

ex. KFNL

KPNS 212253Z 12007KT 10SM CLR 28/19 A3012 RMK AO2 SLP200 T02830194

21 Sep 2019 23:56

Phone: 850-436-4799

Other Area AWOS: KNPA - KNDZ - KNSE - KHRT

TAF AMD KPNS 212007Z 2120/2218 15011KT P6SM FEW030 FEW100 FM220100 15006KT P6SM FEW050 FEW250 FM220800 09005KT P6SM SCT030 SCT250